sensor_id;sensor_type;location;lat;lon;timestamp;pressure;altitude;pressure_sealevel;temperature;humidity
23321;BME280;33376;51.306;4.752;2023-02-21T00:02:29;102498.78;;;8.96;100.00
23321;BME280;33376;51.306;4.752;2023-02-21T00:05:13;102491.56;;;9.03;100.00
23321;BME280;33376;51.306;4.752;2023-02-21T00:07:57;102495.06;;;9.05;100.00
23321;BME280;33376;51.306;4.752;2023-02-21T00:10:40;102504.00;;;8.99;100.00
23321;BME280;33376;51.306;4.752;2023-02-21T00:13:24;102505.75;;;8.99;100.00
23321;BME280;33376;51.306;4.752;2023-02-21T00:16:08;102515.41;;;9.03;100.00
23321;BME280;33376;51.306;4.752;2023-02-21T00:18:52;102506.59;;;9.01;100.00
23321;BME280;33376;51.306;4.752;2023-02-21T00:21:36;102495.84;;;9.08;100.00
23321;BME280;33376;51.306;4.752;2023-02-21T00:24:20;102488.19;;;8.96;100.00
23321;BME280;33376;51.306;4.752;2023-02-21T00:27:03;102482.97;;;8.93;100.00
23321;BME280;33376;51.306;4.752;2023-02-21T00:29:47;102483.13;;;8.87;100.00
23321;BME280;33376;51.306;4.752;2023-02-21T00:32:32;102485.72;;;8.88;100.00
23321;BME280;33376;51.306;4.752;2023-02-21T00:35:16;102483.03;;;8.90;100.00
23321;BME280;33376;51.306;4.752;2023-02-21T00:37:59;102483.28;;;8.78;100.00
23321;BME280;33376;51.306;4.752;2023-02-21T00:40:43;102481.25;;;8.90;100.00
23321;BME280;33376;51.306;4.752;2023-02-21T00:43:31;102487.56;;;8.85;100.00
23321;BME280;33376;51.306;4.752;2023-02-21T00:46:15;102480.47;;;8.85;100.00
23321;BME280;33376;51.306;4.752;2023-02-21T00:48:59;102490.13;;;8.88;100.00
23321;BME280;33376;51.306;4.752;2023-02-21T00:51:43;102472.50;;;8.88;100.00
23321;BME280;33376;51.306;4.752;2023-02-21T00:54:27;102471.66;;;8.86;100.00
23321;BME280;33376;51.306;4.752;2023-02-21T00:57:11;102468.16;;;8.84;100.00
23321;BME280;33376;51.306;4.752;2023-02-21T00:59:54;102468.16;;;8.84;100.00
23321;BME280;33376;51.306;4.752;2023-02-21T01:02:38;102457.59;;;8.84;100.00
23321;BME280;33376;51.306;4.752;2023-02-21T01:05:22;102460.34;;;8.80;100.00
23321;BME280;33376;51.306;4.752;2023-02-21T01:08:06;102459.41;;;8.81;100.00
23321;BME280;33376;51.306;4.752;2023-02-21T01:10:50;102454.72;;;8.93;100.00
23321;BME280;33376;51.306;4.752;2023-02-21T01:13:34;102462.94;;;8.81;100.00
23321;BME280;33376;51.306;4.752;2023-02-21T01:16:18;102433.03;;;8.78;100.00
23321;BME280;33376;51.306;4.752;2023-02-21T01:19:01;102439.22;;;8.78;100.00
23321;BME280;33376;51.306;4.752;2023-02-21T01:21:45;102433.88;;;8.80;100.00
23321;BME280;33376;51.306;4.752;2023-02-21T01:24:29;102427.66;;;8.82;100.00
23321;BME280;33376;51.306;4.752;2023-02-21T01:27:13;102423.22;;;8.83;100.00
23321;BME280;33376;51.306;4.752;2023-02-21T01:29:56;102423.31;;;8.80;100.00
23321;BME280;33376;51.306;4.752;2023-02-21T01:32:40;102430.22;;;8.85;100.00
23321;BME280;33376;51.306;4.752;2023-02-21T01:35:24;102427.66;;;8.82;100.00
23321;BME280;33376;51.306;4.752;2023-02-21T01:38:08;102428.56;;;8.81;100.00
23321;BME280;33376;51.306;4.752;2023-02-21T01:40:51;102422.28;;;8.85;100.00
23321;BME280;33376;51.306;4.752;2023-02-21T01:43:35;102422.34;;;8.82;100.00
23321;BME280;33376;51.306;4.752;2023-02-21T01:46:19;102420.59;;;8.83;100.00
23321;BME280;33376;51.306;4.752;2023-02-21T01:49:04;102414.41;;;8.82;100.00
23321;BME280;33376;51.306;4.752;2023-02-21T01:51:49;102411.00;;;8.79;100.00
23321;BME280;33376;51.306;4.752;2023-02-21T01:54:35;102402.19;;;8.78;100.00
23321;BME280;33376;51.306;4.752;2023-02-21T01:57:20;102404.75;;;8.81;100.00
23321;BME280;33376;51.306;4.752;2023-02-21T02:00:05;102407.91;;;8.97;100.00
23321;BME280;33376;51.306;4.752;2023-02-21T02:05:33;102400.50;;;8.74;100.00
23321;BME280;33376;51.306;4.752;2023-02-21T02:08:20;102403.66;;;8.92;100.00
23321;BME280;33376;51.306;4.752;2023-02-21T02:11:15;102400.34;;;8.82;100.00
23321;BME280;33376;51.306;4.752;2023-02-21T02:14:17;102396.91;;;8.78;100.00
23321;BME280;33376;51.306;4.752;2023-02-21T02:24:37;102376.53;;;8.82;100.00
23321;BME280;33376;51.306;4.752;2023-02-21T02:27:19;102373.75;;;8.88;100.00
23321;BME280;33376;51.306;4.752;2023-02-21T02:48:00;102362.75;;;8.68;100.00
23321;BME280;33376;51.306;4.752;2023-02-21T02:50:26;102361.03;;;8.65;100.00
23321;BME280;33376;51.306;4.752;2023-02-21T02:52:53;102353.84;;;8.72;100.00
23321;BME280;33376;51.306;4.752;2023-02-21T02:55:20;102351.38;;;8.64;100.00
23321;BME280;33376;51.306;4.752;2023-02-21T02:57:47;102351.44;;;8.63;100.00
23321;BME280;33376;51.306;4.752;2023-02-21T03:00:15;102353.03;;;8.68;100.00
23321;BME280;33376;51.306;4.752;2023-02-21T03:03:30;102340.75;;;8.67;100.00
23321;BME280;33376;51.306;4.752;2023-02-21T03:05:46;102335.69;;;8.57;100.00
23321;BME280;33376;51.306;4.752;2023-02-21T03:08:22;102338.25;;;8.61;100.00
23321;BME280;33376;51.306;4.752;2023-02-21T03:13:19;102333.69;;;8.66;100.00
23321;BME280;33376;51.306;4.752;2023-02-21T03:18:48;102326.00;;;8.56;100.00
23321;BME280;33376;51.306;4.752;2023-02-21T03:21:19;102327.72;;;8.58;100.00
23321;BME280;33376;51.306;4.752;2023-02-21T03:23:45;102322.41;;;8.58;100.00
23321;BME280;33376;51.306;4.752;2023-02-21T03:26:12;102316.41;;;8.53;100.00
23321;BME280;33376;51.306;4.752;2023-02-21T03:28:38;102320.81;;;8.53;100.00
23321;BME280;33376;51.306;4.752;2023-02-21T03:31:04;102306.75;;;8.51;100.00
23321;BME280;33376;51.306;4.752;2023-02-21T03:33:32;102305.06;;;8.48;100.00
23321;BME280;33376;51.306;4.752;2023-02-21T03:35:58;102299.66;;;8.53;100.00
23321;BME280;33376;51.306;4.752;2023-02-21T03:38:26;102288.13;;;8.55;100.00
23321;BME280;33376;51.306;4.752;2023-02-21T03:40:51;102283.84;;;8.51;100.00
23321;BME280;33376;51.306;4.752;2023-02-21T03:43:17;102279.50;;;8.47;100.00
23321;BME280;33376;51.306;4.752;2023-02-21T03:45:42;102275.94;;;8.50;100.00
23321;BME280;33376;51.306;4.752;2023-02-21T03:48:07;102266.91;;;8.60;100.00
23321;BME280;33376;51.306;4.752;2023-02-21T03:50:32;102263.44;;;8.56;100.00
23321;BME280;33376;51.306;4.752;2023-02-21T03:52:58;102264.59;;;8.45;100.00
23321;BME280;33376;51.306;4.752;2023-02-21T03:55:23;102259.28;;;8.46;100.00
23321;BME280;33376;51.306;4.752;2023-02-21T03:57:48;102252.25;;;8.45;100.00
23321;BME280;33376;51.306;4.752;2023-02-21T04:00:13;102248.75;;;8.45;100.00
23321;BME280;33376;51.306;4.752;2023-02-21T04:02:39;102252.22;;;8.47;100.00
23321;BME280;33376;51.306;4.752;2023-02-21T04:05:04;102240.81;;;8.45;100.00
23321;BME280;33376;51.306;4.752;2023-02-21T04:07:29;102243.44;;;8.45;100.00
23321;BME280;33376;51.306;4.752;2023-02-21T04:09:57;102238.06;;;8.49;100.00
23321;BME280;33376;51.306;4.752;2023-02-21T04:12:22;102231.00;;;8.50;100.00
23321;BME280;33376;51.306;4.752;2023-02-21T04:14:47;102223.16;;;8.47;100.00
23321;BME280;33376;51.306;4.752;2023-02-21T04:17:12;102232.81;;;8.48;100.00
23321;BME280;33376;51.306;4.752;2023-02-21T04:19:38;102228.34;;;8.50;100.00
23321;BME280;33376;51.306;4.752;2023-02-21T04:22:03;102234.56;;;8.47;100.00
23321;BME280;33376;51.306;4.752;2023-02-21T04:24:28;102232.50;;;8.61;100.00
23321;BME280;33376;51.306;4.752;2023-02-21T04:26:53;102226.59;;;8.50;100.00
23321;BME280;33376;51.306;4.752;2023-02-21T04:29:19;102233.69;;;8.48;100.00
23321;BME280;33376;51.306;4.752;2023-02-21T04:31:44;102231.03;;;8.48;100.00
23321;BME280;33376;51.306;4.752;2023-02-21T04:34:09;102233.78;;;8.44;100.00
23321;BME280;33376;51.306;4.752;2023-02-21T04:36:34;102224.91;;;8.46;100.00
23321;BME280;33376;51.306;4.752;2023-02-21T04:39:02;102218.75;;;8.46;100.00
23321;BME280;33376;51.306;4.752;2023-02-21T04:41:28;102219.53;;;8.49;100.00
23321;BME280;33376;51.306;4.752;2023-02-21T04:43:53;102221.34;;;8.47;100.00
23321;BME280;33376;51.306;4.752;2023-02-21T04:46:19;102230.00;;;8.54;100.00
23321;BME280;33376;51.306;4.752;2023-02-21T04:48:45;102217.06;;;8.43;100.00
23321;BME280;33376;51.306;4.752;2023-02-21T04:51:11;102221.47;;;8.43;100.00
23321;BME280;33376;51.306;4.752;2023-02-21T04:53:37;102219.97;;;8.33;100.00
23321;BME280;33376;51.306;4.752;2023-02-21T04:56:03;102216.38;;;8.35;100.00
23321;BME280;33376;51.306;4.752;2023-02-21T04:58:31;102209.16;;;8.42;100.00
23321;BME280;33376;51.306;4.752;2023-02-21T05:00:56;102207.53;;;8.36;100.00
23321;BME280;33376;51.306;4.752;2023-02-21T05:03:21;102204.88;;;8.36;100.00
23321;BME280;33376;51.306;4.752;2023-02-21T05:05:48;102209.41;;;8.33;100.00
23321;BME280;33376;51.306;4.752;2023-02-21T05:08:13;102208.47;;;8.34;100.00
23321;BME280;33376;51.306;4.752;2023-02-21T05:10:38;102213.84;;;8.31;100.00
23321;BME280;33376;51.306;4.752;2023-02-21T05:13:04;102219.97;;;8.31;100.00
23321;BME280;33376;51.306;4.752;2023-02-21T05:15:29;102218.28;;;8.29;100.00
23321;BME280;33376;51.306;4.752;2023-02-21T05:17:54;102217.41;;;8.28;100.00
23321;BME280;33376;51.306;4.752;2023-02-21T05:20:19;102213.06;;;8.26;100.00
23321;BME280;33376;51.306;4.752;2023-02-21T05:22:45;102206.84;;;8.28;100.00
23321;BME280;33376;51.306;4.752;2023-02-21T05:27:40;102210.56;;;8.20;100.00
23321;BME280;33376;51.306;4.752;2023-02-21T05:30:06;102211.41;;;8.20;100.00
23321;BME280;33376;51.306;4.752;2023-02-21T05:32:31;102208.72;;;8.22;100.00
23321;BME280;33376;51.306;4.752;2023-02-21T05:34:57;102214.00;;;8.25;100.00
23321;BME280;33376;51.306;4.752;2023-02-21T05:37:22;102218.47;;;8.20;100.00
23321;BME280;33376;51.306;4.752;2023-02-21T05:39:48;102216.63;;;8.25;100.00
23321;BME280;33376;51.306;4.752;2023-02-21T05:42:13;102214.69;;;8.33;100.00
23321;BME280;33376;51.306;4.752;2023-02-21T05:44:38;102216.72;;;8.19;100.00
23321;BME280;33376;51.306;4.752;2023-02-21T05:47:03;102217.34;;;8.31;100.00
23321;BME280;33376;51.306;4.752;2023-02-21T05:49:31;102215.03;;;8.16;100.00
23321;BME280;33376;51.306;4.752;2023-02-21T05:51:56;102209.78;;;8.15;100.00
23321;BME280;33376;51.306;4.752;2023-02-21T05:54:21;102209.44;;;8.30;100.00
23321;BME280;33376;51.306;4.752;2023-02-21T05:56:47;102198.16;;;8.22;100.00
23321;BME280;33376;51.306;4.752;2023-02-21T05:59:13;102199.06;;;8.21;100.00
23321;BME280;33376;51.306;4.752;2023-02-21T06:01:38;102193.91;;;8.16;100.00
23321;BME280;33376;51.306;4.752;2023-02-21T06:04:04;102189.38;;;8.21;100.00
23321;BME280;33376;51.306;4.752;2023-02-21T06:06:31;102177.78;;;8.28;100.00
23321;BME280;33376;51.306;4.752;2023-02-21T06:08:56;102176.16;;;8.21;100.00
23321;BME280;33376;51.306;4.752;2023-02-21T06:11:23;102171.88;;;8.16;100.00
23321;BME280;33376;51.306;4.752;2023-02-21T06:13:49;102163.06;;;8.17;100.00
23321;BME280;33376;51.306;4.752;2023-02-21T06:16:14;102169.47;;;8.07;100.00
23321;BME280;33376;51.306;4.752;2023-02-21T06:18:40;102170.47;;;8.01;100.00
23321;BME280;33376;51.306;4.752;2023-02-21T06:21:05;102162.66;;;7.97;100.00
23321;BME280;33376;51.306;4.752;2023-02-21T06:23:30;102160.13;;;7.92;100.00
23321;BME280;33376;51.306;4.752;2023-02-21T06:25:55;102152.16;;;7.94;100.00
23321;BME280;33376;51.306;4.752;2023-02-21T06:28:21;102145.22;;;7.88;100.00
23321;BME280;33376;51.306;4.752;2023-02-21T06:30:46;102149.78;;;7.83;100.00
23321;BME280;33376;51.306;4.752;2023-02-21T06:33:11;102147.94;;;7.85;100.00
23321;BME280;33376;51.306;4.752;2023-02-21T06:35:36;102152.28;;;7.89;100.00
23321;BME280;33376;51.306;4.752;2023-02-21T06:38:02;102134.84;;;7.81;100.00
23321;BME280;33376;51.306;4.752;2023-02-21T06:40:27;102133.94;;;7.83;100.00
23321;BME280;33376;51.306;4.752;2023-02-21T06:42:52;102141.00;;;7.81;100.00
23321;BME280;33376;51.306;4.752;2023-02-21T06:45:17;102136.59;;;7.82;100.00
23321;BME280;33376;51.306;4.752;2023-02-21T06:47:43;102130.63;;;7.74;100.00
23321;BME280;33376;51.306;4.752;2023-02-21T06:50:08;102122.41;;;7.86;100.00
23321;BME280;33376;51.306;4.752;2023-02-21T06:52:33;102125.31;;;7.75;100.00
23321;BME280;33376;51.306;4.752;2023-02-21T06:54:58;102112.06;;;7.77;100.00
23321;BME280;33376;51.306;4.752;2023-02-21T06:57:24;102099.69;;;7.80;100.00
23321;BME280;33376;51.306;4.752;2023-02-21T06:59:49;102096.16;;;7.80;100.00
23321;BME280;33376;51.306;4.752;2023-02-21T07:02:15;102092.66;;;7.79;100.00
23321;BME280;33376;51.306;4.752;2023-02-21T07:04:42;102029.31;;;7.78;100.00
23321;BME280;33376;51.306;4.752;2023-02-21T07:07:07;102022.28;;;7.78;100.00
23321;BME280;33376;51.306;4.752;2023-02-21T07:09:32;102009.06;;;7.78;100.00
23321;BME280;33376;51.306;4.752;2023-02-21T07:11:58;101998.44;;;7.81;100.00
23321;BME280;33376;51.306;4.752;2023-02-21T07:14:23;102009.88;;;7.82;100.00
23321;BME280;33376;51.306;4.752;2023-02-21T07:16:48;102005.34;;;7.85;100.00
23321;BME280;33376;51.306;4.752;2023-02-21T07:19:14;101993.16;;;7.81;100.00
23321;BME280;33376;51.306;4.752;2023-02-21T07:21:41;101987.97;;;7.78;100.00
23321;BME280;33376;51.306;4.752;2023-02-21T07:24:06;101979.13;;;7.79;100.00
23321;BME280;33376;51.306;4.752;2023-02-21T07:26:31;101963.28;;;7.79;100.00
23321;BME280;33376;51.306;4.752;2023-02-21T07:28:56;101950.88;;;7.83;100.00
23321;BME280;33376;51.306;4.752;2023-02-21T07:31:22;101943.88;;;7.82;100.00
23321;BME280;33376;51.306;4.752;2023-02-21T07:33:47;101945.56;;;7.84;100.00
23321;BME280;33376;51.306;4.752;2023-02-21T07:36:12;101933.34;;;7.80;100.00
23321;BME280;33376;51.306;4.752;2023-02-21T07:38:37;101926.16;;;7.85;100.00
23321;BME280;33376;51.306;4.752;2023-02-21T07:41:03;101921.84;;;7.83;100.00
23321;BME280;33376;51.306;4.752;2023-02-21T07:43:28;101919.16;;;7.84;100.00
23321;BME280;33376;51.306;4.752;2023-02-21T07:45:54;101908.53;;;7.86;100.00
23321;BME280;33376;51.306;4.752;2023-02-21T07:48:20;101898.84;;;7.86;100.00
23321;BME280;33376;51.306;4.752;2023-02-21T07:50:45;101889.97;;;7.89;100.00
23321;BME280;33376;51.306;4.752;2023-02-21T07:53:11;101899.53;;;7.94;100.00
23321;BME280;33376;51.306;4.752;2023-02-21T07:55:36;101892.50;;;7.93;100.00
23321;BME280;33376;51.306;4.752;2023-02-21T07:58:02;101887.19;;;7.93;100.00
23321;BME280;33376;51.306;4.752;2023-02-21T08:00:27;101873.19;;;7.91;100.00
23321;BME280;33376;51.306;4.752;2023-02-21T08:02:52;101860.75;;;7.95;100.00
23321;BME280;33376;51.306;4.752;2023-02-21T08:05:18;101856.22;;;8.00;100.00
23321;BME280;33376;51.306;4.752;2023-02-21T08:07:44;101867.91;;;7.91;100.00
23321;BME280;33376;51.306;4.752;2023-02-21T08:10:09;101874.84;;;7.95;100.00
23321;BME280;33376;51.306;4.752;2023-02-21T08:12:34;101877.53;;;7.94;100.00
23321;BME280;33376;51.306;4.752;2023-02-21T08:15:00;101870.47;;;7.94;100.00
23321;BME280;33376;51.306;4.752;2023-02-21T08:17:25;101867.69;;;7.99;100.00
23321;BME280;33376;51.306;4.752;2023-02-21T08:19:51;101863.16;;;8.04;100.00
23321;BME280;33376;51.306;4.752;2023-02-21T08:22:16;101859.69;;;8.02;100.00
23321;BME280;33376;51.306;4.752;2023-02-21T08:24:42;101872.06;;;8.00;100.00
23321;BME280;33376;51.306;4.752;2023-02-21T08:27:07;101873.72;;;8.04;100.00
23321;BME280;33376;51.306;4.752;2023-02-21T08:29:32;101875.59;;;8.00;100.00
23321;BME280;33376;51.306;4.752;2023-02-21T08:31:57;101875.53;;;8.02;100.00
23321;BME280;33376;51.306;4.752;2023-02-21T08:34:23;101875.50;;;8.03;100.00
23321;BME280;33376;51.306;4.752;2023-02-21T08:36:49;101872.84;;;8.03;100.00
23321;BME280;33376;51.306;4.752;2023-02-21T08:39:14;101870.00;;;8.11;100.00
23321;BME280;33376;51.306;4.752;2023-02-21T08:41:46;101866.59;;;8.07;100.00
23321;BME280;33376;51.306;4.752;2023-02-21T08:44:13;101862.97;;;8.10;100.00
23321;BME280;33376;51.306;4.752;2023-02-21T08:46:40;101866.69;;;8.03;100.00
23321;BME280;33376;51.306;4.752;2023-02-21T08:49:05;101873.63;;;8.07;100.00
23321;BME280;33376;51.306;4.752;2023-02-21T08:51:31;101873.63;;;8.07;100.00
23321;BME280;33376;51.306;4.752;2023-02-21T08:53:57;101878.03;;;8.06;100.00
23321;BME280;33376;51.306;4.752;2023-02-21T08:56:23;101870.22;;;8.03;100.00
23321;BME280;33376;51.306;4.752;2023-02-21T08:58:48;101863.25;;;8.01;100.00
23321;BME280;33376;51.306;4.752;2023-02-21T09:01:14;101868.31;;;8.08;100.00
23321;BME280;33376;51.306;4.752;2023-02-21T09:03:39;101868.34;;;8.07;100.00
23321;BME280;33376;51.306;4.752;2023-02-21T09:06:05;101870.13;;;8.06;100.00
23321;BME280;33376;51.306;4.752;2023-02-21T09:08:30;101865.84;;;8.02;100.00
23321;BME280;33376;51.306;4.752;2023-02-21T09:10:56;101860.38;;;8.08;100.00
23321;BME280;33376;51.306;4.752;2023-02-21T09:13:25;101848.84;;;8.11;100.00
23321;BME280;33376;51.306;4.752;2023-02-21T09:15:50;101834.53;;;8.19;100.00
23321;BME280;33376;51.306;4.752;2023-02-21T09:18:15;101839.16;;;8.11;100.00
23321;BME280;33376;51.306;4.752;2023-02-21T09:20:41;101838.78;;;8.26;100.00
23321;BME280;33376;51.306;4.752;2023-02-21T09:23:06;101850.66;;;8.10;100.00
23321;BME280;33376;51.306;4.752;2023-02-21T09:25:32;101839.81;;;8.19;100.00
23321;BME280;33376;51.306;4.752;2023-02-21T09:27:57;101835.44;;;8.18;100.00
23321;BME280;33376;51.306;4.752;2023-02-21T09:30:24;101836.09;;;8.28;100.00
23321;BME280;33376;51.306;4.752;2023-02-21T09:32:50;101836.13;;;8.26;100.00
23321;BME280;33376;51.306;4.752;2023-02-21T09:35:16;101837.03;;;8.25;100.00
23321;BME280;33376;51.306;4.752;2023-02-21T09:37:42;101819.25;;;8.30;100.00
23321;BME280;33376;51.306;4.752;2023-02-21T09:40:26;101814.06;;;8.27;100.00
23321;BME280;33376;51.306;4.752;2023-02-21T09:42:53;101812.31;;;8.28;100.00
23321;BME280;33376;51.306;4.752;2023-02-21T09:45:20;101798.81;;;8.37;100.00
23321;BME280;33376;51.306;4.752;2023-02-21T09:47:50;101804.03;;;8.38;100.00
23321;BME280;33376;51.306;4.752;2023-02-21T09:50:18;101789.63;;;8.48;100.00
23321;BME280;33376;51.306;4.752;2023-02-21T09:52:44;101790.41;;;8.52;100.00
23321;BME280;33376;51.306;4.752;2023-02-21T09:55:18;101784.09;;;8.56;100.00
23321;BME280;33376;51.306;4.752;2023-02-21T09:57:45;101782.44;;;8.53;100.00
23321;BME280;33376;51.306;4.752;2023-02-21T10:00:18;101775.50;;;8.49;100.00
23321;BME280;33376;51.306;4.752;2023-02-21T10:02:59;101770.78;;;8.59;100.00
23321;BME280;33376;51.306;4.752;2023-02-21T10:08:01;101751.25;;;8.64;100.00
23321;BME280;33376;51.306;4.752;2023-02-21T10:15:40;101730.00;;;8.67;100.00
23321;BME280;33376;51.306;4.752;2023-02-21T10:20:48;101731.72;;;8.68;100.00
23321;BME280;33376;51.306;4.752;2023-02-21T10:23:17;101734.09;;;8.76;100.00
23321;BME280;33376;51.306;4.752;2023-02-21T10:25:43;101733.81;;;8.85;100.00
23321;BME280;33376;51.306;4.752;2023-02-21T10:28:19;101734.34;;;8.68;100.00
23321;BME280;33376;51.306;4.752;2023-02-21T10:30:45;101741.22;;;8.74;100.00
23321;BME280;33376;51.306;4.752;2023-02-21T10:33:12;101730.50;;;8.78;100.00
23321;BME280;33376;51.306;4.752;2023-02-21T10:35:38;101730.72;;;8.72;100.00
23321;BME280;33376;51.306;4.752;2023-02-21T10:38:05;101730.06;;;8.90;100.00
23321;BME280;33376;51.306;4.752;2023-02-21T10:40:35;101733.69;;;8.88;100.00
23321;BME280;33376;51.306;4.752;2023-02-21T10:43:04;101732.53;;;8.97;100.00
23321;BME280;33376;51.306;4.752;2023-02-21T10:45:35;101728.03;;;8.99;100.00
23321;BME280;33376;51.306;4.752;2023-02-21T10:48:06;101725.81;;;9.11;100.00
23321;BME280;33376;51.306;4.752;2023-02-21T10:50:51;101730.78;;;8.96;100.00
23321;BME280;33376;51.306;4.752;2023-02-21T10:53:30;101736.63;;;9.05;100.00
23321;BME280;33376;51.306;4.752;2023-02-21T10:56:06;101740.19;;;9.04;100.00
23321;BME280;33376;51.306;4.752;2023-02-21T10:58:31;101750.91;;;9.26;100.00
23321;BME280;33376;51.306;4.752;2023-02-21T11:00:57;101746.03;;;9.14;100.00
23321;BME280;33376;51.306;4.752;2023-02-21T11:03:34;101751.09;;;8.95;100.00
23321;BME280;33376;51.306;4.752;2023-02-21T11:05:59;101747.44;;;8.99;100.00
23321;BME280;33376;51.306;4.752;2023-02-21T11:08:36;101740.47;;;8.97;100.00
23321;BME280;33376;51.306;4.752;2023-02-21T11:11:02;101740.91;;;9.09;100.00
23321;BME280;33376;51.306;4.752;2023-02-21T11:13:28;101742.34;;;8.93;100.00
23321;BME280;33376;51.306;4.752;2023-02-21T11:18:39;101748.81;;;8.84;100.00
23321;BME280;33376;51.306;4.752;2023-02-21T11:21:10;101756.69;;;8.86;100.00
23321;BME280;33376;51.306;4.752;2023-02-21T11:23:36;101760.53;;;8.76;100.00
23321;BME280;33376;51.306;4.752;2023-02-21T11:26:06;101747.13;;;8.82;100.00
23321;BME280;33376;51.306;4.752;2023-02-21T11:28:39;101749.88;;;8.79;100.00
23321;BME280;33376;51.306;4.752;2023-02-21T11:31:49;101755.00;;;8.83;100.00
23321;BME280;33376;51.306;4.752;2023-02-21T11:33:56;101750.16;;;9.22;100.00
23321;BME280;33376;51.306;4.752;2023-02-21T11:36:26;101761.69;;;9.20;100.00
23321;BME280;33376;51.306;4.752;2023-02-21T11:41:57;101767.53;;;9.29;100.00
23321;BME280;33376;51.306;4.752;2023-02-21T11:44:36;101774.00;;;9.21;100.00
23321;BME280;33376;51.306;4.752;2023-02-21T11:52:24;101786.44;;;9.19;100.00
23321;BME280;33376;51.306;4.752;2023-02-21T11:54:50;101789.44;;;9.08;100.00
23321;BME280;33376;51.306;4.752;2023-02-21T11:57:29;101780.75;;;9.05;100.00
23321;BME280;33376;51.306;4.752;2023-02-21T12:02:33;101788.25;;;8.90;100.00
23321;BME280;33376;51.306;4.752;2023-02-21T12:07:43;101792.50;;;8.68;100.00
23321;BME280;33376;51.306;4.752;2023-02-21T12:15:21;101796.50;;;8.81;100.00
23321;BME280;33376;51.306;4.752;2023-02-21T12:17:58;101795.44;;;8.87;100.00
23321;BME280;33376;51.306;4.752;2023-02-21T12:25:24;101778.75;;;8.85;100.00
23321;BME280;33376;51.306;4.752;2023-02-21T12:46:03;101783.22;;;8.83;100.00
23321;BME280;33376;51.306;4.752;2023-02-21T12:49:17;101778.19;;;8.75;100.00
23321;BME280;33376;51.306;4.752;2023-02-21T12:51:25;101777.06;;;8.82;100.00
23321;BME280;33376;51.306;4.752;2023-02-21T12:53:56;101775.38;;;9.08;100.00
23321;BME280;33376;51.306;4.752;2023-02-21T12:57:08;101777.44;;;8.98;100.00
23321;BME280;33376;51.306;4.752;2023-02-21T13:01:40;101776.63;;;8.96;100.00
23321;BME280;33376;51.306;4.752;2023-02-21T13:07:00;101777.63;;;8.66;100.00
23321;BME280;33376;51.306;4.752;2023-02-21T13:09:33;101780.13;;;8.70;100.00
23321;BME280;33376;51.306;4.752;2023-02-21T13:12:02;101775.81;;;8.66;100.00
23321;BME280;33376;51.306;4.752;2023-02-21T13:14:46;101771.16;;;8.74;100.00
23321;BME280;33376;51.306;4.752;2023-02-21T13:17:13;101772.28;;;8.67;100.00
23321;BME280;33376;51.306;4.752;2023-02-21T13:19:41;101768.44;;;8.50;100.00
23321;BME280;33376;51.306;4.752;2023-02-21T13:22:11;101772.38;;;8.37;100.00
23321;BME280;33376;51.306;4.752;2023-02-21T13:32:49;101747.16;;;8.54;100.00
23321;BME280;33376;51.306;4.752;2023-02-21T13:35:18;101754.31;;;8.51;100.00
23321;BME280;33376;51.306;4.752;2023-02-21T13:37:45;101753.13;;;8.61;100.00
23321;BME280;33376;51.306;4.752;2023-02-21T13:43:11;101735.16;;;8.70;100.00
23321;BME280;33376;51.306;4.752;2023-02-21T13:45:38;101730.19;;;8.87;100.00
23321;BME280;33376;51.306;4.752;2023-02-21T13:58:33;101726.38;;;9.21;100.00
23321;BME280;33376;51.306;4.752;2023-02-21T14:03:46;101743.19;;;8.93;100.00
23321;BME280;33376;51.306;4.752;2023-02-21T14:06:20;101739.66;;;8.95;100.00
23321;BME280;33376;51.306;4.752;2023-02-21T14:08:48;101732.09;;;9.09;100.00
23321;BME280;33376;51.306;4.752;2023-02-21T14:11:15;101719.59;;;9.14;100.00
23321;BME280;33376;51.306;4.752;2023-02-21T14:19:05;101724.66;;;9.20;100.00
23321;BME280;33376;51.306;4.752;2023-02-21T14:21:42;101717.81;;;9.14;100.00
23321;BME280;33376;51.306;4.752;2023-02-21T14:26:36;101723.16;;;9.37;100.00
23321;BME280;33376;51.306;4.752;2023-02-21T14:31:48;101734.03;;;9.04;100.00
23321;BME280;33376;51.306;4.752;2023-02-21T14:34:16;101729.34;;;9.12;100.00
23321;BME280;33376;51.306;4.752;2023-02-21T14:36:44;101723.78;;;9.19;100.00
23321;BME280;33376;51.306;4.752;2023-02-21T14:39:10;101730.38;;;9.32;100.00
23321;BME280;33376;51.306;4.752;2023-02-21T14:44:49;101727.03;;;9.03;100.00
23321;BME280;33376;51.306;4.752;2023-02-21T14:49:41;101722.13;;;8.90;100.00
23321;BME280;33376;51.306;4.752;2023-02-21T15:12:31;101703.03;;;8.82;100.00
23321;BME280;33376;51.306;4.752;2023-02-21T15:14:59;101695.63;;;8.92;100.00
23321;BME280;33376;51.306;4.752;2023-02-21T15:17:25;101692.25;;;8.88;100.00
23321;BME280;33376;51.306;4.752;2023-02-21T15:20:03;101690.28;;;8.95;100.00
23321;BME280;33376;51.306;4.752;2023-02-21T15:22:29;101695.84;;;8.86;100.00
23321;BME280;33376;51.306;4.752;2023-02-21T15:25:10;101691.44;;;8.86;100.00
23321;BME280;33376;51.306;4.752;2023-02-21T15:27:37;101682.56;;;8.87;100.00
23321;BME280;33376;51.306;4.752;2023-02-21T15:30:19;101679.44;;;8.76;100.00
23321;BME280;33376;51.306;4.752;2023-02-21T15:35:35;101659.72;;;8.86;100.00
23321;BME280;33376;51.306;4.752;2023-02-21T15:38:01;101661.53;;;8.84;100.00
23321;BME280;33376;51.306;4.752;2023-02-21T15:40:27;101667.59;;;8.88;100.00
23321;BME280;33376;51.306;4.752;2023-02-21T15:42:53;101645.94;;;9.02;100.00
23321;BME280;33376;51.306;4.752;2023-02-21T15:45:26;101636.41;;;9.21;100.00
23321;BME280;33376;51.306;4.752;2023-02-21T15:47:53;101640.09;;;8.92;100.00